HomeShort term forecast

Short term forecast

Graphical weather forecast for the next 48 hours for Montreal:

Short term forecast

This weather forecast is automatically refreshed every 3 hours.

Hourly Experimental Forecast for the next 48 hours ®

Overall summary: Mostly cloudy throughout the day.

 Date & Hour   Temp   Feel   Baro   Hum   Speed & Bearing   Wind Gust   Precip.%   Precip.   Visibility   Cloud cover   Conditions 
 07/05/2021 - 01:00  6.5°C  5.4°C  1014.9 hPa  62%  6.1 km/h   10.9 km/h  0%  --  16.1km  13%  Clear 
 07/05/2021 - 02:00  5.9°C  4.9°C  1014.5 hPa  67%  5.9 km/h   11.0 km/h  1%  0.04 mm/h  16.1km  27%  Clear 
 07/05/2021 - 03:00  5.1°C  4.2°C  1014.8 hPa  73%  5.2 km/h   10.1 km/h  0%  --  16.1km  36%  Partly Cloudy 
 07/05/2021 - 04:00  4.5°C  3.4°C  1015.0 hPa  76%  5.2 km/h   9.1 km/h  0%  --  16.1km  31%  Clear 
 07/05/2021 - 05:00  3.9°C  2.8°C  1015.2 hPa  78%  5.0 km/h   7.6 km/h  0%  --  16.1km  42%  Partly Cloudy 
 07/05/2021 - 06:00  3.9°C  2.8°C  1015.4 hPa  79%  5.0 km/h   8.5 km/h  0%  --  16.1km  23%  Clear 
 07/05/2021 - 07:00  5.1°C  5.1°C  1015.2 hPa  75%  4.7 km/h   11.1 km/h  1%  0.01 mm/h  16.1km  30%  Clear 
 07/05/2021 - 08:00  6.8°C  5.8°C  1015.8 hPa  69%  6.0 km/h   14.1 km/h  0%  --  16.1km  33%  Partly Cloudy 
 07/05/2021 - 09:00  8.6°C  7.6°C  1015.8 hPa  63%  7.0 km/h   14.0 km/h  0%  --  16.1km  31%  Clear 
 07/05/2021 - 10:00  10.5°C  10.5°C  1015.5 hPa  56%  7.6 km/h   12.5 km/h  1%  0.03 mm/h  16.1km  40%  Partly Cloudy 
 07/05/2021 - 11:00  11.7°C  11.7°C  1015.4 hPa  49%  8.2 km/h   11.9 km/h  0%  --  16.1km  52%  Partly Cloudy 
 07/05/2021 - 12:00  12.5°C  12.5°C  1015.0 hPa  44%  8.1 km/h   12.1 km/h  0%  --  16.1km  56%  Partly Cloudy 
 07/05/2021 - 13:00  12.8°C  12.8°C  1014.0 hPa  43%  8.6 km/h   11.3 km/h  0%  --  16.1km  47%  Partly Cloudy 
 07/05/2021 - 14:00  13.8°C  13.8°C  1013.1 hPa  40%  8.8 km/h   11.6 km/h  1%  0.01 mm/h  16.1km  50%  Partly Cloudy 
 07/05/2021 - 15:00  14.4°C  14.4°C  1012.6 hPa  39%  9.0 km/h   11.8 km/h  0%  --  16.1km  70%  Mostly Cloudy 
 07/05/2021 - 16:00  14.9°C  14.9°C  1012.4 hPa  39%  8.9 km/h   12.5 km/h  0%  --  16.1km  76%  Mostly Cloudy 
 07/05/2021 - 17:00  14.8°C  14.8°C  1012.1 hPa  40%  9.4 km/h   15.7 km/h  0%  --  16.1km  83%  Mostly Cloudy 
 07/05/2021 - 18:00  14.7°C  14.7°C  1012.0 hPa  44%  10.7 km/h   17.8 km/h  0%  --  16.1km  82%  Mostly Cloudy 
 07/05/2021 - 19:00  13.9°C  13.9°C  1012.0 hPa  51%  10.3 km/h   21.0 km/h  0%  --  16.1km  82%  Mostly Cloudy 
 07/05/2021 - 20:00  12.7°C  12.7°C  1012.2 hPa  58%  9.3 km/h   19.6 km/h  2%  0.02 mm/h  16.1km  87%  Mostly Cloudy 
 07/05/2021 - 21:00  11.8°C  11.8°C  1012.3 hPa  62%  10.4 km/h   24.3 km/h  2%  0.01 mm/h  16.1km  89%  Overcast 
 07/05/2021 - 22:00  11.2°C  11.2°C  1012.1 hPa  64%  10.0 km/h   24.6 km/h  2%  0.01 mm/h  16.1km  91%  Overcast 
 07/05/2021 - 23:00  10.8°C  10.8°C  1011.7 hPa  66%  10.7 km/h   27.9 km/h  2%  0.01 mm/h  16.1km  92%  Overcast 
 08/05/2021 - 00:00  10.5°C  10.5°C  1011.4 hPa  67%  10.8 km/h   29.0 km/h  1%  0.01 mm/h  16.1km  90%  Overcast 
 08/05/2021 - 01:00  10.0°C  10.0°C  1011.1 hPa  69%  10.7 km/h   26.1 km/h  0%  --  16.1km  92%  Overcast 
 08/05/2021 - 02:00  9.5°C  8.0°C  1010.9 hPa  71%  10.7 km/h   24.9 km/h  0%  --  16.1km  91%  Overcast 
 08/05/2021 - 03:00  8.6°C  6.9°C  1011.0 hPa  75%  10.2 km/h   23.0 km/h  0%  --  16.1km  88%  Overcast 
 08/05/2021 - 04:00  7.8°C  6.2°C  1010.7 hPa  78%  9.0 km/h   18.4 km/h  2%  0.01 mm/h  16.1km  85%  Mostly Cloudy 
 08/05/2021 - 05:00  7.1°C  5.6°C  1010.8 hPa  79%  8.2 km/h   13.8 km/h  2%  0.01 mm/h  16.1km  83%  Mostly Cloudy 
 08/05/2021 - 06:00  7.3°C  5.7°C  1011.2 hPa  78%  8.9 km/h   15.4 km/h  3%  0.03 mm/h  16.1km  79%  Mostly Cloudy 
 08/05/2021 - 07:00  8.2°C  6.5°C  1011.8 hPa  74%  9.8 km/h   17.9 km/h  3%  0.03 mm/h  16.1km  75%  Mostly Cloudy 
 08/05/2021 - 08:00  9.2°C  7.5°C  1012.1 hPa  69%  11.3 km/h   21.9 km/h  3%  0.02 mm/h  16.1km  74%  Mostly Cloudy 
 08/05/2021 - 09:00  10.5°C  10.5°C  1012.2 hPa  64%  11.8 km/h   21.6 km/h  2%  0.01 mm/h  16.1km  75%  Mostly Cloudy 
 08/05/2021 - 10:00  12.0°C  12.0°C  1012.0 hPa  56%  12.0 km/h   22.0 km/h  2%  0.01 mm/h  16.1km  78%  Mostly Cloudy 
 08/05/2021 - 11:00  13.3°C  13.3°C  1011.8 hPa  49%  12.3 km/h   20.5 km/h  2%  0.01 mm/h  16.1km  81%  Mostly Cloudy 
 08/05/2021 - 12:00  13.9°C  13.9°C  1011.6 hPa  44%  12.3 km/h   19.6 km/h  0%  --  16.1km  87%  Mostly Cloudy 
 08/05/2021 - 13:00  14.9°C  14.9°C  1011.0 hPa  40%  11.9 km/h   18.3 km/h  2%  0.01 mm/h  16.1km  91%  Overcast 
 08/05/2021 - 14:00  15.5°C  15.5°C  1010.7 hPa  39%  11.0 km/h   15.3 km/h  2%  0.01 mm/h  16.1km  93%  Overcast 
 08/05/2021 - 15:00  15.9°C  15.9°C  1010.7 hPa  37%  10.5 km/h   13.6 km/h  2%  0.03 mm/h  16.1km  92%  Overcast 
 08/05/2021 - 16:00  15.7°C  15.7°C  1010.7 hPa  39%  10.3 km/h   12.3 km/h  3%  0.07 mm/h  16.1km  88%  Overcast 
 08/05/2021 - 17:00  14.9°C  14.9°C  1010.8 hPa  44%  13.5 km/h   15.2 km/h  3%  0.06 mm/h  16.1km  86%  Mostly Cloudy 
 08/05/2021 - 18:00  14.1°C  14.1°C  1011.1 hPa  51%  12.1 km/h   17.0 km/h  2%  0.05 mm/h  16.1km  86%  Mostly Cloudy 
 08/05/2021 - 19:00  13.6°C  13.6°C  1011.4 hPa  57%  9.8 km/h   16.2 km/h  3%  0.05 mm/h  16.1km  86%  Mostly Cloudy 
 08/05/2021 - 20:00  12.4°C  12.4°C  1011.9 hPa  63%  8.7 km/h   18.9 km/h  4%  0.06 mm/h  16.1km  88%  Overcast 
 08/05/2021 - 21:00  11.6°C  11.6°C  1012.4 hPa  68%  9.0 km/h   20.5 km/h  3%  0.03 mm/h  16.1km  89%  Overcast 
 08/05/2021 - 22:00  10.9°C  10.9°C  1012.6 hPa  72%  10.2 km/h   22.4 km/h  3%  0.03 mm/h  16.1km  89%  Overcast 
 08/05/2021 - 23:00  10.2°C  10.2°C  1012.9 hPa  75%  11.2 km/h   23.5 km/h  3%  0.03 mm/h  16.1km  87%  Mostly Cloudy 
 09/05/2021 - 00:00  9.6°C  8.0°C  1013.1 hPa  77%  11.1 km/h   22.9 km/h  3%  0.03 mm/h  16.1km  81%  Mostly Cloudy 

 

Past weather and reports

Past weatherFind in this section the past weather conditions, weather archive, graphics, reports and statistics.

Current conditions

Current weather condition for MontrealAll you need to know about the current weather conditions for Montreal. Weather data is updated every 10 minutes.

Weather forecast

Current Montreal weatherSince 2004, celinium.com website has provided accurate weather forecast for Montreal's island.